createdAt,value
2022-09-28T20:43:40.260Z,10.93
2022-09-28T20:46:10.376Z,11.65
2022-09-28T20:48:37.878Z,9.88
2022-09-28T20:51:13.386Z,10.38
2022-09-28T20:53:41.693Z,10.57
2022-09-28T20:56:13.232Z,10.68
2022-09-28T20:58:41.409Z,10.38
2022-09-28T21:01:08.057Z,10.10
2022-09-28T21:03:35.500Z,10.52
2022-09-28T21:06:03.016Z,10.32
2022-09-28T21:08:30.954Z,10.85
2022-09-28T21:10:57.810Z,10.27
2022-09-28T21:13:26.243Z,10.10
2022-09-28T21:15:52.945Z,10.80
2022-09-28T21:18:20.949Z,10.82
2022-09-28T21:20:49.428Z,10.45
2022-09-28T21:23:20.547Z,10.95
2022-09-28T21:25:49.316Z,11.52
2022-09-28T21:28:17.422Z,11.00
2022-09-28T21:30:45.634Z,10.52
2022-09-28T21:33:12.226Z,11.35
2022-09-28T21:35:39.306Z,10.65
2022-09-28T21:38:05.944Z,10.93
2022-09-28T21:40:32.674Z,11.10
2022-09-28T21:42:59.270Z,10.40
2022-09-28T21:45:25.904Z,11.30
2022-09-28T21:47:53.533Z,10.63
2022-09-28T21:50:24.440Z,10.90
2022-09-28T21:52:53.169Z,11.45
2022-09-28T21:55:21.964Z,10.30
2022-09-28T21:57:53.058Z,11.05
2022-09-28T22:00:23.185Z,10.18
2022-09-28T22:02:50.967Z,10.77
2022-09-28T22:05:19.139Z,10.80
2022-09-28T22:07:45.747Z,10.02
2022-09-28T22:10:14.508Z,10.00
2022-09-28T22:12:41.334Z,10.15
2022-09-28T22:15:08.695Z,10.30
2022-09-28T22:17:37.994Z,10.02
2022-09-28T22:20:05.594Z,10.77
2022-09-28T22:22:32.287Z,10.73
2022-09-28T22:24:59.016Z,10.38
2022-09-28T22:27:25.723Z,10.30
2022-09-28T22:29:52.324Z,11.02
2022-09-28T22:32:18.928Z,10.38
2022-09-28T22:34:45.510Z,10.25
2022-09-28T22:37:12.060Z,10.02
2022-09-28T22:39:41.004Z,9.63
2022-09-28T22:42:08.269Z,9.80
2022-09-28T22:44:35.858Z,11.90
2022-09-28T22:47:03.185Z,9.90
2022-09-28T22:49:29.905Z,10.07
2022-09-28T22:51:56.557Z,10.55
2022-09-28T22:54:23.178Z,10.48
2022-09-28T22:56:49.726Z,10.50
2022-09-28T22:59:16.300Z,10.23
2022-09-28T23:01:43.168Z,9.82
2022-09-28T23:04:09.828Z,10.70
2022-09-28T23:06:36.671Z,10.00
2022-09-28T23:09:03.612Z,9.85
2022-09-28T23:11:30.251Z,9.98
2022-09-28T23:13:59.211Z,9.90
2022-09-28T23:16:26.624Z,9.85
2022-09-28T23:18:55.108Z,10.10
2022-09-28T23:21:24.481Z,9.73
2022-09-28T23:23:54.006Z,10.00
2022-09-28T23:26:23.792Z,8.90
2022-09-28T23:28:51.205Z,9.73
2022-09-28T23:31:20.747Z,9.07
2022-09-28T23:33:47.731Z,8.90
2022-09-28T23:36:15.064Z,9.52
2022-09-28T23:38:41.677Z,8.77
2022-09-28T23:41:09.009Z,8.70
2022-09-28T23:43:36.264Z,9.30
2022-09-28T23:46:04.672Z,9.60
2022-09-28T23:48:31.833Z,8.90
2022-09-28T23:50:58.504Z,9.13
2022-09-28T23:53:25.263Z,9.00
2022-09-28T23:55:51.933Z,9.30
2022-09-28T23:58:18.689Z,9.10
